Portada
METAR-TAF:

METAR-TAF

Aeroports :

Aeroport Internacional de Sfax

Sfax, Tunísia

latitud: 34-43N, longitud: 010-41E, altitud: 21 m

Observació

L'informe es va fer fa 25 minuts, a les 19:00 UTC
Vent 3 kt del Oest/Nord-Oest
Temperatura 15°C
Humitat 41%
Pressió 1022 hPa
Visibilitat 10 km o més
sense núvols per sota de 1500 mi sense presència de cumulonimbus.

METAR: DTTX 101900Z 30003KT CAVOK 15/02 Q1022 NOSIG

Hora: 20:25 (19:25 UTC)

Pronòstic

L'informe es va fer fa 1 hora i 45 minuts, a les 17:40 UTC
Pronòstic vàlid del 10 a les 18 UTC al 11 a les 18 UTC
Vent 8 kt del Oest/Nord-Oest
Visibilitat 10 km o més
sense núvols per sota de 1500 mi sense presència de cumulonimbus.
Evolucionant progressivament
l' 10 a les 23 UTC al 11 a les 01 UTC
Vent 8 kt del Sud-Oest

TAF: DTTX 101740Z 1018/1118 30008KT CAVOK BECMG 1023/1101 22008KT

Observacions i pronòstics meteorològics de més de 4000 aeroports (METAR i TAF).

Les estacions disponibles són els punts grocs i vermells al mapa.

Posi el ratolí al punt desitjat per veure el nom de l'estació.

Feu clic per veure les observacions i els pronòstics meteorològics.

Per canviar el mapa: feu clic els botons verds amb una creu de color negre per apropar; al botó verd amb un guió per allunyar la imatge; o en les fletxes verdes per a mapes adjacents.


METAR-TAF: